sensor_id;sensor_type;location;lat;lon;timestamp;P1;durP1;ratioP1;P2;durP2;ratioP2
70014;SDS011;57358;51.094;6.760;2023-06-01T00:01:50;6.55;;;6.15;;
70014;SDS011;57358;51.094;6.760;2023-06-01T00:04:17;9.43;;;6.55;;
70014;SDS011;57358;51.094;6.760;2023-06-01T00:06:44;6.22;;;5.72;;
70014;SDS011;57358;51.094;6.760;2023-06-01T00:09:10;6.57;;;6.15;;
70014;SDS011;57358;51.094;6.760;2023-06-01T00:11:37;6.68;;;5.40;;
70014;SDS011;57358;51.094;6.760;2023-06-01T00:14:04;6.47;;;5.70;;
70014;SDS011;57358;51.094;6.760;2023-06-01T00:16:31;6.70;;;6.10;;
70014;SDS011;57358;51.094;6.760;2023-06-01T00:18:57;6.50;;;6.10;;
70014;SDS011;57358;51.094;6.760;2023-06-01T00:21:27;6.05;;;5.65;;
70014;SDS011;57358;51.094;6.760;2023-06-01T00:23:54;6.28;;;5.78;;
70014;SDS011;57358;51.094;6.760;2023-06-01T00:26:21;6.28;;;5.68;;
70014;SDS011;57358;51.094;6.760;2023-06-01T00:28:47;5.53;;;5.22;;
70014;SDS011;57358;51.094;6.760;2023-06-01T00:31:14;5.60;;;5.20;;
70014;SDS011;57358;51.094;6.760;2023-06-01T00:33:40;5.65;;;5.35;;
70014;SDS011;57358;51.094;6.760;2023-06-01T00:36:07;6.03;;;5.63;;
70014;SDS011;57358;51.094;6.760;2023-06-01T00:38:34;6.45;;;5.85;;
70014;SDS011;57358;51.094;6.760;2023-06-01T00:41:01;6.15;;;5.72;;
70014;SDS011;57358;51.094;6.760;2023-06-01T00:43:28;5.97;;;5.47;;
70014;SDS011;57358;51.094;6.760;2023-06-01T00:45:54;6.18;;;5.72;;
70014;SDS011;57358;51.094;6.760;2023-06-01T00:48:23;6.45;;;5.90;;
70014;SDS011;57358;51.094;6.760;2023-06-01T00:50:52;6.18;;;5.55;;
70014;SDS011;57358;51.094;6.760;2023-06-01T00:53:19;6.22;;;5.68;;
70014;SDS011;57358;51.094;6.760;2023-06-01T00:55:46;5.65;;;5.25;;
70014;SDS011;57358;51.094;6.760;2023-06-01T00:58:13;6.50;;;6.00;;
70014;SDS011;57358;51.094;6.760;2023-06-01T01:00:41;5.93;;;5.53;;
70014;SDS011;57358;51.094;6.760;2023-06-01T01:03:08;5.90;;;5.40;;
70014;SDS011;57358;51.094;6.760;2023-06-01T01:05:36;7.70;;;5.82;;
70014;SDS011;57358;51.094;6.760;2023-06-01T01:08:07;9.30;;;5.57;;
70014;SDS011;57358;51.094;6.760;2023-06-01T01:16:11;5.93;;;5.50;;
70014;SDS011;57358;51.094;6.760;2023-06-01T01:21:49;5.57;;;5.28;;
70014;SDS011;57358;51.094;6.760;2023-06-01T01:33:02;6.30;;;5.70;;
70014;SDS011;57358;51.094;6.760;2023-06-01T01:35:29;5.88;;;5.40;;
70014;SDS011;57358;51.094;6.760;2023-06-01T01:37:57;6.25;;;5.78;;
70014;SDS011;57358;51.094;6.760;2023-06-01T01:40:24;6.00;;;5.60;;
70014;SDS011;57358;51.094;6.760;2023-06-01T01:42:50;6.30;;;5.70;;
70014;SDS011;57358;51.094;6.760;2023-06-01T01:45:18;6.78;;;5.80;;
70014;SDS011;57358;51.094;6.760;2023-06-01T01:48:00;5.53;;;5.22;;
70014;SDS011;57358;51.094;6.760;2023-06-01T01:50:38;8.50;;;5.82;;
70014;SDS011;57358;51.094;6.760;2023-06-01T01:53:13;7.00;;;6.40;;
70014;SDS011;57358;51.094;6.760;2023-06-01T01:55:40;6.85;;;5.50;;
70014;SDS011;57358;51.094;6.760;2023-06-01T01:58:07;5.90;;;5.50;;
70014;SDS011;57358;51.094;6.760;2023-06-01T02:00:35;6.25;;;5.65;;
70014;SDS011;57358;51.094;6.760;2023-06-01T02:03:12;6.65;;;6.00;;
70014;SDS011;57358;51.094;6.760;2023-06-01T02:05:40;6.50;;;5.88;;
70014;SDS011;57358;51.094;6.760;2023-06-01T02:08:07;7.18;;;6.47;;
70014;SDS011;57358;51.094;6.760;2023-06-01T02:10:33;8.13;;;6.85;;
70014;SDS011;57358;51.094;6.760;2023-06-01T02:13:00;7.53;;;6.65;;
70014;SDS011;57358;51.094;6.760;2023-06-01T02:15:26;6.15;;;5.65;;
70014;SDS011;57358;51.094;6.760;2023-06-01T02:17:53;7.10;;;6.40;;
70014;SDS011;57358;51.094;6.760;2023-06-01T02:20:20;6.65;;;6.05;;
70014;SDS011;57358;51.094;6.760;2023-06-01T02:22:46;6.68;;;5.82;;
70014;SDS011;57358;51.094;6.760;2023-06-01T02:25:13;8.93;;;5.50;;
70014;SDS011;57358;51.094;6.760;2023-06-01T02:27:39;6.30;;;5.80;;
70014;SDS011;57358;51.094;6.760;2023-06-01T02:30:06;10.15;;;5.60;;
70014;SDS011;57358;51.094;6.760;2023-06-01T02:32:33;6.50;;;5.70;;
70014;SDS011;57358;51.094;6.760;2023-06-01T02:35:01;5.80;;;5.40;;
70014;SDS011;57358;51.094;6.760;2023-06-01T02:37:27;7.05;;;6.35;;
70014;SDS011;57358;51.094;6.760;2023-06-01T02:39:54;8.30;;;5.57;;
70014;SDS011;57358;51.094;6.760;2023-06-01T02:42:20;6.47;;;5.97;;
70014;SDS011;57358;51.094;6.760;2023-06-01T02:44:47;7.50;;;6.57;;
70014;SDS011;57358;51.094;6.760;2023-06-01T02:47:13;5.93;;;5.43;;
70014;SDS011;57358;51.094;6.760;2023-06-01T02:49:40;9.13;;;5.72;;
70014;SDS011;57358;51.094;6.760;2023-06-01T02:52:06;6.40;;;5.80;;
70014;SDS011;57358;51.094;6.760;2023-06-01T02:54:33;6.97;;;6.38;;
70014;SDS011;57358;51.094;6.760;2023-06-01T02:56:59;6.78;;;6.15;;
70014;SDS011;57358;51.094;6.760;2023-06-01T02:59:27;13.40;;;6.13;;
70014;SDS011;57358;51.094;6.760;2023-06-01T03:01:54;9.45;;;6.40;;
70014;SDS011;57358;51.094;6.760;2023-06-01T03:04:20;9.00;;;6.18;;
70014;SDS011;57358;51.094;6.760;2023-06-01T03:06:49;6.80;;;6.20;;
70014;SDS011;57358;51.094;6.760;2023-06-01T03:09:16;10.13;;;6.15;;
70014;SDS011;57358;51.094;6.760;2023-06-01T03:11:43;10.80;;;6.18;;
70014;SDS011;57358;51.094;6.760;2023-06-01T03:14:10;6.65;;;5.95;;
70014;SDS011;57358;51.094;6.760;2023-06-01T03:16:36;6.90;;;6.32;;
70014;SDS011;57358;51.094;6.760;2023-06-01T03:19:03;8.73;;;7.10;;
70014;SDS011;57358;51.094;6.760;2023-06-01T03:21:30;7.88;;;7.07;;
70014;SDS011;57358;51.094;6.760;2023-06-01T03:23:57;6.70;;;6.10;;
70014;SDS011;57358;51.094;6.760;2023-06-01T03:26:24;6.70;;;6.07;;
70014;SDS011;57358;51.094;6.760;2023-06-01T03:28:51;8.52;;;7.72;;
70014;SDS011;57358;51.094;6.760;2023-06-01T03:31:21;7.95;;;7.07;;
70014;SDS011;57358;51.094;6.760;2023-06-01T03:33:48;9.13;;;7.22;;
70014;SDS011;57358;51.094;6.760;2023-06-01T03:36:14;8.52;;;7.75;;
70014;SDS011;57358;51.094;6.760;2023-06-01T03:38:41;7.38;;;6.70;;
70014;SDS011;57358;51.094;6.760;2023-06-01T03:41:08;7.38;;;6.68;;
70014;SDS011;57358;51.094;6.760;2023-06-01T03:43:35;9.98;;;7.20;;
70014;SDS011;57358;51.094;6.760;2023-06-01T03:46:01;8.57;;;7.47;;
70014;SDS011;57358;51.094;6.760;2023-06-01T03:48:29;7.80;;;7.03;;
70014;SDS011;57358;51.094;6.760;2023-06-01T03:50:55;8.68;;;7.68;;
70014;SDS011;57358;51.094;6.760;2023-06-01T03:53:21;8.35;;;7.47;;
70014;SDS011;57358;51.094;6.760;2023-06-01T03:55:48;8.30;;;7.53;;
70014;SDS011;57358;51.094;6.760;2023-06-01T03:58:17;10.90;;;7.20;;
70014;SDS011;57358;51.094;6.760;2023-06-01T04:00:45;11.63;;;8.40;;
70014;SDS011;57358;51.094;6.760;2023-06-01T04:03:12;7.30;;;6.60;;
70014;SDS011;57358;51.094;6.760;2023-06-01T04:05:39;9.15;;;7.72;;
70014;SDS011;57358;51.094;6.760;2023-06-01T04:08:07;8.65;;;7.07;;
70014;SDS011;57358;51.094;6.760;2023-06-01T04:10:35;11.35;;;7.78;;
70014;SDS011;57358;51.094;6.760;2023-06-01T04:13:01;9.38;;;8.48;;
70014;SDS011;57358;51.094;6.760;2023-06-01T04:15:28;8.20;;;7.50;;
70014;SDS011;57358;51.094;6.760;2023-06-01T04:17:54;10.18;;;8.10;;
70014;SDS011;57358;51.094;6.760;2023-06-01T04:20:21;13.18;;;8.05;;
70014;SDS011;57358;51.094;6.760;2023-06-01T04:22:49;9.75;;;7.35;;
70014;SDS011;57358;51.094;6.760;2023-06-01T04:25:15;14.27;;;7.38;;
70014;SDS011;57358;51.094;6.760;2023-06-01T04:27:47;11.75;;;8.55;;
70014;SDS011;57358;51.094;6.760;2023-06-01T04:30:15;8.15;;;7.18;;
70014;SDS011;57358;51.094;6.760;2023-06-01T04:32:43;17.63;;;8.98;;
70014;SDS011;57358;51.094;6.760;2023-06-01T04:35:14;10.65;;;8.30;;
70014;SDS011;57358;51.094;6.760;2023-06-01T04:37:41;9.98;;;7.95;;
70014;SDS011;57358;51.094;6.760;2023-06-01T04:40:09;13.15;;;7.53;;
70014;SDS011;57358;51.094;6.760;2023-06-01T04:42:37;9.82;;;7.55;;
70014;SDS011;57358;51.094;6.760;2023-06-01T04:45:05;12.23;;;7.93;;
70014;SDS011;57358;51.094;6.760;2023-06-01T04:47:34;20.88;;;9.18;;
70014;SDS011;57358;51.094;6.760;2023-06-01T04:50:05;9.52;;;8.05;;
70014;SDS011;57358;51.094;6.760;2023-06-01T04:52:34;10.00;;;8.70;;
70014;SDS011;57358;51.094;6.760;2023-06-01T04:55:02;9.77;;;8.60;;
70014;SDS011;57358;51.094;6.760;2023-06-01T04:57:33;10.18;;;8.82;;
70014;SDS011;57358;51.094;6.760;2023-06-01T05:00:01;13.95;;;9.35;;
70014;SDS011;57358;51.094;6.760;2023-06-01T05:02:37;8.30;;;7.50;;
70014;SDS011;57358;51.094;6.760;2023-06-01T05:05:05;13.90;;;8.43;;
70014;SDS011;57358;51.094;6.760;2023-06-01T05:07:33;15.50;;;8.63;;
70014;SDS011;57358;51.094;6.760;2023-06-01T05:09:59;15.10;;;9.48;;
70014;SDS011;57358;51.094;6.760;2023-06-01T05:12:33;14.07;;;9.60;;
70014;SDS011;57358;51.094;6.760;2023-06-01T05:15:00;15.77;;;8.75;;
70014;SDS011;57358;51.094;6.760;2023-06-01T05:17:28;12.48;;;10.18;;
70014;SDS011;57358;51.094;6.760;2023-06-01T05:19:54;15.70;;;10.88;;
70014;SDS011;57358;51.094;6.760;2023-06-01T05:22:20;20.75;;;9.13;;
70014;SDS011;57358;51.094;6.760;2023-06-01T05:24:47;13.10;;;9.32;;
70014;SDS011;57358;51.094;6.760;2023-06-01T05:27:14;19.13;;;8.10;;
70014;SDS011;57358;51.094;6.760;2023-06-01T05:29:40;16.80;;;8.65;;
70014;SDS011;57358;51.094;6.760;2023-06-01T05:32:06;16.13;;;10.68;;
70014;SDS011;57358;51.094;6.760;2023-06-01T05:34:34;15.45;;;8.40;;
70014;SDS011;57358;51.094;6.760;2023-06-01T05:37:01;9.50;;;8.40;;
70014;SDS011;57358;51.094;6.760;2023-06-01T05:39:28;9.77;;;7.82;;
70014;SDS011;57358;51.094;6.760;2023-06-01T05:41:54;11.32;;;7.38;;
70014;SDS011;57358;51.094;6.760;2023-06-01T05:44:21;20.80;;;8.73;;
70014;SDS011;57358;51.094;6.760;2023-06-01T05:46:48;17.60;;;8.38;;
70014;SDS011;57358;51.094;6.760;2023-06-01T05:49:15;12.40;;;8.60;;
70014;SDS011;57358;51.094;6.760;2023-06-01T05:51:41;22.67;;;9.50;;
70014;SDS011;57358;51.094;6.760;2023-06-01T05:54:09;10.35;;;8.77;;
70014;SDS011;57358;51.094;6.760;2023-06-01T05:56:36;14.25;;;10.25;;
70014;SDS011;57358;51.094;6.760;2023-06-01T05:59:03;12.15;;;8.50;;
70014;SDS011;57358;51.094;6.760;2023-06-01T06:01:30;24.98;;;9.80;;
70014;SDS011;57358;51.094;6.760;2023-06-01T06:03:56;12.10;;;9.20;;
70014;SDS011;57358;51.094;6.760;2023-06-01T06:06:23;16.35;;;11.05;;
70014;SDS011;57358;51.094;6.760;2023-06-01T06:08:51;10.93;;;8.88;;
70014;SDS011;57358;51.094;6.760;2023-06-01T06:11:18;11.05;;;8.25;;
70014;SDS011;57358;51.094;6.760;2023-06-01T06:13:45;16.42;;;10.40;;
70014;SDS011;57358;51.094;6.760;2023-06-01T06:16:12;21.13;;;10.80;;
70014;SDS011;57358;51.094;6.760;2023-06-01T06:18:38;12.23;;;8.73;;
70014;SDS011;57358;51.094;6.760;2023-06-01T06:21:05;24.17;;;12.38;;
70014;SDS011;57358;51.094;6.760;2023-06-01T06:23:32;22.38;;;10.10;;
70014;SDS011;57358;51.094;6.760;2023-06-01T06:25:59;21.38;;;10.43;;
70014;SDS011;57358;51.094;6.760;2023-06-01T06:28:25;27.33;;;10.73;;
70014;SDS011;57358;51.094;6.760;2023-06-01T06:30:52;14.05;;;10.93;;
70014;SDS011;57358;51.094;6.760;2023-06-01T06:33:19;16.70;;;10.38;;
70014;SDS011;57358;51.094;6.760;2023-06-01T06:35:45;17.33;;;10.18;;
70014;SDS011;57358;51.094;6.760;2023-06-01T06:38:12;19.35;;;11.40;;
70014;SDS011;57358;51.094;6.760;2023-06-01T06:40:39;18.90;;;10.13;;
70014;SDS011;57358;51.094;6.760;2023-06-01T06:43:05;15.30;;;10.80;;
70014;SDS011;57358;51.094;6.760;2023-06-01T06:45:32;16.88;;;10.95;;
70014;SDS011;57358;51.094;6.760;2023-06-01T06:47:58;23.60;;;12.68;;
70014;SDS011;57358;51.094;6.760;2023-06-01T06:50:25;20.55;;;9.35;;
70014;SDS011;57358;51.094;6.760;2023-06-01T06:52:51;14.27;;;10.15;;
70014;SDS011;57358;51.094;6.760;2023-06-01T06:55:18;21.92;;;10.85;;
70014;SDS011;57358;51.094;6.760;2023-06-01T06:57:44;21.38;;;11.48;;
70014;SDS011;57358;51.094;6.760;2023-06-01T07:00:11;18.42;;;11.23;;
70014;SDS011;57358;51.094;6.760;2023-06-01T07:02:41;13.77;;;9.02;;
70014;SDS011;57358;51.094;6.760;2023-06-01T07:05:08;14.98;;;9.10;;
70014;SDS011;57358;51.094;6.760;2023-06-01T07:07:37;18.13;;;10.65;;
70014;SDS011;57358;51.094;6.760;2023-06-01T07:10:04;13.25;;;10.05;;
70014;SDS011;57358;51.094;6.760;2023-06-01T07:12:32;11.82;;;9.38;;
70014;SDS011;57358;51.094;6.760;2023-06-01T07:14:58;19.63;;;9.43;;
70014;SDS011;57358;51.094;6.760;2023-06-01T07:17:24;11.77;;;8.30;;
70014;SDS011;57358;51.094;6.760;2023-06-01T07:19:51;14.25;;;9.95;;
70014;SDS011;57358;51.094;6.760;2023-06-01T07:22:18;14.98;;;9.88;;
70014;SDS011;57358;51.094;6.760;2023-06-01T07:24:46;19.08;;;9.20;;
70014;SDS011;57358;51.094;6.760;2023-06-01T07:27:13;17.10;;;8.75;;
70014;SDS011;57358;51.094;6.760;2023-06-01T07:29:40;14.75;;;10.10;;
70014;SDS011;57358;51.094;6.760;2023-06-01T07:32:07;13.82;;;9.30;;
70014;SDS011;57358;51.094;6.760;2023-06-01T07:34:34;11.00;;;9.45;;
70014;SDS011;57358;51.094;6.760;2023-06-01T07:37:01;19.73;;;9.77;;
70014;SDS011;57358;51.094;6.760;2023-06-01T07:39:43;11.80;;;9.05;;
70014;SDS011;57358;51.094;6.760;2023-06-01T07:42:09;16.38;;;11.38;;
70014;SDS011;57358;51.094;6.760;2023-06-01T07:44:35;14.38;;;10.48;;
70014;SDS011;57358;51.094;6.760;2023-06-01T07:47:03;18.38;;;10.35;;
70014;SDS011;57358;51.094;6.760;2023-06-01T07:49:29;17.63;;;11.35;;
70014;SDS011;57358;51.094;6.760;2023-06-01T07:51:56;19.55;;;10.65;;
70014;SDS011;57358;51.094;6.760;2023-06-01T07:54:24;16.48;;;10.52;;
70014;SDS011;57358;51.094;6.760;2023-06-01T07:56:51;13.23;;;9.82;;
70014;SDS011;57358;51.094;6.760;2023-06-01T07:59:17;15.68;;;10.18;;
70014;SDS011;57358;51.094;6.760;2023-06-01T08:01:44;15.90;;;10.93;;
70014;SDS011;57358;51.094;6.760;2023-06-01T08:04:10;14.30;;;9.07;;
70014;SDS011;57358;51.094;6.760;2023-06-01T08:06:37;16.70;;;9.70;;
70014;SDS011;57358;51.094;6.760;2023-06-01T08:09:04;14.63;;;10.13;;
70014;SDS011;57358;51.094;6.760;2023-06-01T08:11:30;17.77;;;11.00;;
70014;SDS011;57358;51.094;6.760;2023-06-01T08:13:59;20.48;;;12.10;;
70014;SDS011;57358;51.094;6.760;2023-06-01T08:16:33;14.50;;;9.98;;
70014;SDS011;57358;51.094;6.760;2023-06-01T08:19:00;18.25;;;10.75;;
70014;SDS011;57358;51.094;6.760;2023-06-01T08:21:26;12.88;;;10.35;;
70014;SDS011;57358;51.094;6.760;2023-06-01T08:23:53;18.35;;;11.43;;
70014;SDS011;57358;51.094;6.760;2023-06-01T08:26:22;13.23;;;10.57;;
70014;SDS011;57358;51.094;6.760;2023-06-01T08:28:49;15.38;;;9.77;;
70014;SDS011;57358;51.094;6.760;2023-06-01T08:33:46;17.00;;;10.38;;
70014;SDS011;57358;51.094;6.760;2023-06-01T08:36:13;19.88;;;11.00;;
70014;SDS011;57358;51.094;6.760;2023-06-01T08:38:40;18.10;;;10.95;;
70014;SDS011;57358;51.094;6.760;2023-06-01T08:41:14;17.27;;;11.48;;
70014;SDS011;57358;51.094;6.760;2023-06-01T08:43:58;17.40;;;10.73;;
70014;SDS011;57358;51.094;6.760;2023-06-01T08:46:27;19.80;;;12.02;;
70014;SDS011;57358;51.094;6.760;2023-06-01T08:48:57;15.02;;;10.85;;
70014;SDS011;57358;51.094;6.760;2023-06-01T08:51:24;22.48;;;11.90;;
70014;SDS011;57358;51.094;6.760;2023-06-01T08:53:53;17.42;;;12.05;;
70014;SDS011;57358;51.094;6.760;2023-06-01T08:56:22;14.73;;;10.77;;
70014;SDS011;57358;51.094;6.760;2023-06-01T08:58:48;17.20;;;11.30;;
70014;SDS011;57358;51.094;6.760;2023-06-01T09:01:17;22.88;;;12.95;;
70014;SDS011;57358;51.094;6.760;2023-06-01T09:03:47;24.70;;;13.30;;
70014;SDS011;57358;51.094;6.760;2023-06-01T09:06:14;24.63;;;13.57;;
70014;SDS011;57358;51.094;6.760;2023-06-01T09:08:41;16.08;;;11.15;;
70014;SDS011;57358;51.094;6.760;2023-06-01T09:11:08;28.95;;;13.38;;
70014;SDS011;57358;51.094;6.760;2023-06-01T09:13:35;22.40;;;12.93;;
70014;SDS011;57358;51.094;6.760;2023-06-01T09:16:04;21.75;;;13.48;;
70014;SDS011;57358;51.094;6.760;2023-06-01T09:18:31;19.83;;;13.20;;
70014;SDS011;57358;51.094;6.760;2023-06-01T09:21:13;20.70;;;12.90;;
70014;SDS011;57358;51.094;6.760;2023-06-01T09:23:41;24.40;;;13.55;;
70014;SDS011;57358;51.094;6.760;2023-06-01T09:26:09;23.70;;;13.05;;
70014;SDS011;57358;51.094;6.760;2023-06-01T09:28:56;20.67;;;12.98;;
70014;SDS011;57358;51.094;6.760;2023-06-01T09:31:34;22.30;;;12.80;;
70014;SDS011;57358;51.094;6.760;2023-06-01T09:34:14;19.75;;;13.90;;
70014;SDS011;57358;51.094;6.760;2023-06-01T09:36:48;22.83;;;13.85;;
70014;SDS011;57358;51.094;6.760;2023-06-01T09:39:16;25.98;;;13.20;;
70014;SDS011;57358;51.094;6.760;2023-06-01T09:44:36;22.40;;;12.55;;
70014;SDS011;57358;51.094;6.760;2023-06-01T09:47:13;28.63;;;14.38;;
70014;SDS011;57358;51.094;6.760;2023-06-01T09:49:41;23.65;;;14.23;;
70014;SDS011;57358;51.094;6.760;2023-06-01T09:52:10;25.05;;;14.75;;
70014;SDS011;57358;51.094;6.760;2023-06-01T09:54:42;27.48;;;14.85;;
70014;SDS011;57358;51.094;6.760;2023-06-01T09:57:10;25.27;;;13.88;;
70014;SDS011;57358;51.094;6.760;2023-06-01T09:59:39;21.05;;;13.63;;
70014;SDS011;57358;51.094;6.760;2023-06-01T10:02:14;24.85;;;12.63;;
70014;SDS011;57358;51.094;6.760;2023-06-01T10:04:46;24.65;;;13.98;;
70014;SDS011;57358;51.094;6.760;2023-06-01T10:07:16;23.55;;;12.80;;
70014;SDS011;57358;51.094;6.760;2023-06-01T10:09:45;19.23;;;11.85;;
70014;SDS011;57358;51.094;6.760;2023-06-01T10:12:15;23.20;;;12.65;;
70014;SDS011;57358;51.094;6.760;2023-06-01T10:14:41;28.95;;;14.05;;
70014;SDS011;57358;51.094;6.760;2023-06-01T10:17:08;30.70;;;14.70;;
70014;SDS011;57358;51.094;6.760;2023-06-01T10:19:36;24.98;;;13.50;;
70014;SDS011;57358;51.094;6.760;2023-06-01T10:22:06;23.55;;;14.32;;
70014;SDS011;57358;51.094;6.760;2023-06-01T10:24:37;28.65;;;12.77;;
70014;SDS011;57358;51.094;6.760;2023-06-01T10:29:41;28.25;;;13.95;;
70014;SDS011;57358;51.094;6.760;2023-06-01T10:35:04;16.77;;;12.25;;
70014;SDS011;57358;51.094;6.760;2023-06-01T10:37:32;21.38;;;12.07;;
70014;SDS011;57358;51.094;6.760;2023-06-01T10:40:09;20.63;;;12.88;;
70014;SDS011;57358;51.094;6.760;2023-06-01T10:42:47;15.98;;;10.32;;
70014;SDS011;57358;51.094;6.760;2023-06-01T10:48:02;14.00;;;9.43;;
70014;SDS011;57358;51.094;6.760;2023-06-01T10:50:30;19.30;;;11.07;;
70014;SDS011;57358;51.094;6.760;2023-06-01T10:52:57;13.63;;;10.10;;
70014;SDS011;57358;51.094;6.760;2023-06-01T11:01:44;10.70;;;9.32;;
70014;SDS011;57358;51.094;6.760;2023-06-01T11:04:13;13.77;;;8.82;;
70014;SDS011;57358;51.094;6.760;2023-06-01T11:06:40;12.45;;;8.50;;
70014;SDS011;57358;51.094;6.760;2023-06-01T11:09:10;11.25;;;8.98;;
70014;SDS011;57358;51.094;6.760;2023-06-01T11:14:14;11.73;;;9.10;;
70014;SDS011;57358;51.094;6.760;2023-06-01T11:16:42;11.77;;;8.88;;
70014;SDS011;57358;51.094;6.760;2023-06-01T11:19:08;10.30;;;8.63;;
70014;SDS011;57358;51.094;6.760;2023-06-01T11:21:41;15.00;;;8.40;;
70014;SDS011;57358;51.094;6.760;2023-06-01T11:24:13;13.90;;;9.63;;
70014;SDS011;57358;51.094;6.760;2023-06-01T11:26:47;11.85;;;8.50;;
70014;SDS011;57358;51.094;6.760;2023-06-01T11:31:58;8.60;;;7.70;;
70014;SDS011;57358;51.094;6.760;2023-06-01T11:34:39;15.10;;;8.70;;
70014;SDS011;57358;51.094;6.760;2023-06-01T11:37:12;11.15;;;8.73;;
70014;SDS011;57358;51.094;6.760;2023-06-01T11:39:39;11.85;;;8.13;;
70014;SDS011;57358;51.094;6.760;2023-06-01T11:42:13;11.77;;;8.20;;
70014;SDS011;57358;51.094;6.760;2023-06-01T11:44:43;13.20;;;8.27;;
70014;SDS011;57358;51.094;6.760;2023-06-01T11:47:12;12.23;;;8.18;;
70014;SDS011;57358;51.094;6.760;2023-06-01T11:49:43;10.65;;;8.68;;
70014;SDS011;57358;51.094;6.760;2023-06-01T11:52:15;12.65;;;8.55;;
70014;SDS011;57358;51.094;6.760;2023-06-01T11:54:45;10.23;;;8.07;;
70014;SDS011;57358;51.094;6.760;2023-06-01T11:57:13;12.50;;;9.02;;
70014;SDS011;57358;51.094;6.760;2023-06-01T11:59:40;11.05;;;7.75;;
70014;SDS011;57358;51.094;6.760;2023-06-01T12:02:24;8.93;;;8.07;;
70014;SDS011;57358;51.094;6.760;2023-06-01T12:05:06;12.43;;;7.82;;
70014;SDS011;57358;51.094;6.760;2023-06-01T12:07:47;14.23;;;8.55;;
70014;SDS011;57358;51.094;6.760;2023-06-01T12:10:18;13.68;;;8.15;;
70014;SDS011;57358;51.094;6.760;2023-06-01T12:12:45;10.80;;;8.23;;
70014;SDS011;57358;51.094;6.760;2023-06-01T12:15:16;11.50;;;8.27;;
70014;SDS011;57358;51.094;6.760;2023-06-01T12:17:48;13.65;;;8.38;;
70014;SDS011;57358;51.094;6.760;2023-06-01T12:20:28;9.65;;;8.15;;
70014;SDS011;57358;51.094;6.760;2023-06-01T12:23:11;11.07;;;9.00;;
70014;SDS011;57358;51.094;6.760;2023-06-01T12:25:52;12.80;;;8.05;;
70014;SDS011;57358;51.094;6.760;2023-06-01T12:28:21;15.45;;;7.70;;
70014;SDS011;57358;51.094;6.760;2023-06-01T12:30:49;8.30;;;7.35;;
70014;SDS011;57358;51.094;6.760;2023-06-01T12:33:36;11.13;;;8.15;;
70014;SDS011;57358;51.094;6.760;2023-06-01T12:36:03;13.52;;;9.32;;
70014;SDS011;57358;51.094;6.760;2023-06-01T12:38:38;10.43;;;7.72;;
70014;SDS011;57358;51.094;6.760;2023-06-01T12:41:16;14.60;;;9.00;;
70014;SDS011;57358;51.094;6.760;2023-06-01T12:43:45;8.57;;;7.75;;
70014;SDS011;57358;51.094;6.760;2023-06-01T12:46:18;15.48;;;8.40;;
70014;SDS011;57358;51.094;6.760;2023-06-01T12:48:48;12.65;;;7.95;;
70014;SDS011;57358;51.094;6.760;2023-06-01T12:51:16;8.07;;;7.40;;
70014;SDS011;57358;51.094;6.760;2023-06-01T12:53:43;10.27;;;8.13;;
70014;SDS011;57358;51.094;6.760;2023-06-01T12:56:10;10.32;;;7.50;;
70014;SDS011;57358;51.094;6.760;2023-06-01T12:58:37;9.55;;;7.80;;
70014;SDS011;57358;51.094;6.760;2023-06-01T13:01:04;10.15;;;8.10;;
70014;SDS011;57358;51.094;6.760;2023-06-01T13:03:32;8.70;;;7.90;;
70014;SDS011;57358;51.094;6.760;2023-06-01T13:05:59;9.63;;;8.18;;
70014;SDS011;57358;51.094;6.760;2023-06-01T13:08:26;12.77;;;8.75;;
70014;SDS011;57358;51.094;6.760;2023-06-01T13:10:53;10.95;;;8.60;;
70014;SDS011;57358;51.094;6.760;2023-06-01T13:13:20;9.00;;;7.82;;
70014;SDS011;57358;51.094;6.760;2023-06-01T13:15:47;10.73;;;7.50;;
70014;SDS011;57358;51.094;6.760;2023-06-01T13:18:14;12.18;;;8.52;;
70014;SDS011;57358;51.094;6.760;2023-06-01T13:20:40;11.98;;;8.18;;
70014;SDS011;57358;51.094;6.760;2023-06-01T13:23:07;10.77;;;8.65;;
70014;SDS011;57358;51.094;6.760;2023-06-01T13:25:34;10.95;;;8.10;;
70014;SDS011;57358;51.094;6.760;2023-06-01T13:28:01;9.57;;;8.23;;
70014;SDS011;57358;51.094;6.760;2023-06-01T13:30:28;9.18;;;7.60;;
70014;SDS011;57358;51.094;6.760;2023-06-01T13:32:55;10.73;;;8.88;;
70014;SDS011;57358;51.094;6.760;2023-06-01T13:35:22;12.48;;;8.18;;
70014;SDS011;57358;51.094;6.760;2023-06-01T13:37:49;11.88;;;8.63;;
70014;SDS011;57358;51.094;6.760;2023-06-01T13:40:16;8.63;;;7.55;;
70014;SDS011;57358;51.094;6.760;2023-06-01T13:42:49;9.57;;;7.63;;
70014;SDS011;57358;51.094;6.760;2023-06-01T13:45:19;12.18;;;8.43;;
70014;SDS011;57358;51.094;6.760;2023-06-01T13:47:47;13.43;;;8.75;;
70014;SDS011;57358;51.094;6.760;2023-06-01T13:50:15;10.35;;;8.88;;
70014;SDS011;57358;51.094;6.760;2023-06-01T13:52:42;13.00;;;8.80;;
70014;SDS011;57358;51.094;6.760;2023-06-01T13:55:09;11.82;;;8.88;;
70014;SDS011;57358;51.094;6.760;2023-06-01T13:57:36;9.10;;;8.20;;
70014;SDS011;57358;51.094;6.760;2023-06-01T14:00:04;10.30;;;9.27;;
70014;SDS011;57358;51.094;6.760;2023-06-01T14:02:32;11.02;;;8.40;;
70014;SDS011;57358;51.094;6.760;2023-06-01T14:04:59;12.23;;;8.65;;
70014;SDS011;57358;51.094;6.760;2023-06-01T14:07:33;12.60;;;8.05;;
70014;SDS011;57358;51.094;6.760;2023-06-01T14:10:00;11.82;;;7.75;;
70014;SDS011;57358;51.094;6.760;2023-06-01T14:12:27;19.92;;;8.32;;
70014;SDS011;57358;51.094;6.760;2023-06-01T14:14:56;16.00;;;8.25;;
70014;SDS011;57358;51.094;6.760;2023-06-01T14:17:23;9.63;;;8.07;;
70014;SDS011;57358;51.094;6.760;2023-06-01T14:19:50;9.82;;;7.35;;
70014;SDS011;57358;51.094;6.760;2023-06-01T14:22:21;10.15;;;7.57;;
70014;SDS011;57358;51.094;6.760;2023-06-01T14:24:48;8.70;;;7.85;;
70014;SDS011;57358;51.094;6.760;2023-06-01T14:27:15;10.13;;;8.23;;
70014;SDS011;57358;51.094;6.760;2023-06-01T14:29:42;12.77;;;8.02;;
70014;SDS011;57358;51.094;6.760;2023-06-01T14:32:09;13.32;;;8.45;;
70014;SDS011;57358;51.094;6.760;2023-06-01T14:34:36;7.82;;;7.07;;
70014;SDS011;57358;51.094;6.760;2023-06-01T14:37:02;11.55;;;7.85;;
70014;SDS011;57358;51.094;6.760;2023-06-01T14:39:30;11.25;;;7.18;;
70014;SDS011;57358;51.094;6.760;2023-06-01T14:41:57;10.57;;;7.38;;
70014;SDS011;57358;51.094;6.760;2023-06-01T14:44:23;8.07;;;7.28;;
70014;SDS011;57358;51.094;6.760;2023-06-01T14:46:50;9.05;;;8.13;;
70014;SDS011;57358;51.094;6.760;2023-06-01T14:49:16;11.40;;;9.05;;
70014;SDS011;57358;51.094;6.760;2023-06-01T14:51:45;17.50;;;13.02;;
70014;SDS011;57358;51.094;6.760;2023-06-01T14:54:42;9.77;;;8.07;;
70014;SDS011;57358;51.094;6.760;2023-06-01T14:57:08;14.23;;;7.90;;
70014;SDS011;57358;51.094;6.760;2023-06-01T14:59:34;8.20;;;7.50;;
70014;SDS011;57358;51.094;6.760;2023-06-01T15:02:05;9.15;;;7.38;;
70014;SDS011;57358;51.094;6.760;2023-06-01T15:04:33;10.73;;;7.53;;
70014;SDS011;57358;51.094;6.760;2023-06-01T15:07:00;10.57;;;7.55;;
70014;SDS011;57358;51.094;6.760;2023-06-01T15:09:26;9.70;;;7.57;;
70014;SDS011;57358;51.094;6.760;2023-06-01T15:11:53;9.32;;;7.60;;
70014;SDS011;57358;51.094;6.760;2023-06-01T15:14:19;12.18;;;7.70;;
70014;SDS011;57358;51.094;6.760;2023-06-01T15:16:46;7.43;;;6.82;;
70014;SDS011;57358;51.094;6.760;2023-06-01T15:19:13;8.32;;;7.25;;
70014;SDS011;57358;51.094;6.760;2023-06-01T15:21:39;8.90;;;7.32;;
70014;SDS011;57358;51.094;6.760;2023-06-01T15:24:06;9.15;;;8.25;;
70014;SDS011;57358;51.094;6.760;2023-06-01T15:26:33;11.23;;;7.72;;